createdAt,value
2017-03-12T00:01:00.089Z,91.8
2017-03-12T00:02:01.968Z,91.8
2017-03-12T00:03:04.714Z,91.5
2017-03-12T00:04:07.447Z,91.2
2017-03-12T00:05:09.299Z,91.1
2017-03-12T00:06:11.163Z,91
2017-03-12T00:07:13.442Z,91
2017-03-12T00:08:15.746Z,91.1
2017-03-12T00:09:17.612Z,90.8
2017-03-12T00:10:19.909Z,90.8
2017-03-12T00:11:22.611Z,90.7
2017-03-12T00:12:24.914Z,90.5
2017-03-12T00:13:28.053Z,90.4
2017-03-12T00:14:30.745Z,90.4
2017-03-12T00:15:34.319Z,90.5
2017-03-12T00:16:36.633Z,90.4
2017-03-12T00:17:38.513Z,90.3
2017-03-12T00:18:41.669Z,90.4
2017-03-12T00:19:43.559Z,90.5
2017-03-12T00:20:46.287Z,90.5
2017-03-12T00:21:49.028Z,90.2
2017-03-12T00:22:51.287Z,90.2
2017-03-12T00:23:53.580Z,90
2017-03-12T00:24:55.465Z,89.6
2017-03-12T00:25:58.626Z,89.7
2017-03-12T00:27:00.497Z,89.9
2017-03-12T00:28:02.798Z,89.8
2017-03-12T00:29:04.671Z,89.9
2017-03-12T00:30:06.998Z,89.8
2017-03-12T00:31:08.857Z,89.7
2017-03-12T00:32:11.141Z,89.6
2017-03-12T00:33:13.425Z,89.4
2017-03-12T00:34:16.559Z,89.5
2017-03-12T00:35:19.255Z,89.5
2017-03-12T00:36:22.822Z,89.3
2017-03-12T00:37:25.554Z,89.2
2017-03-12T00:38:28.733Z,89.1
2017-03-12T00:39:30.616Z,89.1
2017-03-12T00:40:32.918Z,89.1
2017-03-12T00:41:36.896Z,89.1
2017-03-12T00:42:39.219Z,89.2
2017-03-12T00:43:42.376Z,89
2017-03-12T00:44:45.109Z,88.7
2017-03-12T00:45:48.664Z,88.7
2017-03-12T00:46:51.418Z,88.6
2017-03-12T00:47:54.125Z,88.6
2017-03-12T00:48:56.421Z,88.6
2017-03-12T00:49:59.153Z,88.7
2017-03-12T00:51:01.012Z,88.7
2017-03-12T00:52:03.731Z,88.6
2017-03-12T00:53:06.457Z,88.2
2017-03-12T00:54:09.614Z,87.8
2017-03-12T00:55:11.457Z,87.8
2017-03-12T00:56:14.157Z,88
2017-03-12T00:57:16.508Z,87.7
2017-03-12T00:58:19.271Z,87.6
2017-03-12T00:59:22.000Z,87.3
2017-03-12T01:00:24.293Z,87.3
2017-03-12T01:01:26.594Z,87.5
2017-03-12T01:02:28.459Z,87.5
2017-03-12T01:03:31.179Z,87.3
2017-03-12T01:04:33.898Z,87.1
2017-03-12T01:05:37.488Z,86.8
2017-03-12T01:06:41.907Z,86.6
2017-03-12T01:07:44.638Z,86.6
2017-03-12T01:08:46.920Z,86.5
2017-03-12T01:09:49.224Z,86.2
2017-03-12T01:10:51.094Z,86
2017-03-12T01:11:53.790Z,86.1
2017-03-12T01:12:56.105Z,86.2
2017-03-12T01:13:57.987Z,86.2
2017-03-12T01:15:00.270Z,85.8
2017-03-12T01:16:02.168Z,85.9
2017-03-12T01:17:04.072Z,86
2017-03-12T01:18:06.378Z,86.1
2017-03-12T01:19:08.669Z,86.1
2017-03-12T01:20:10.542Z,86.2
2017-03-12T01:21:13.679Z,86
2017-03-12T01:22:16.385Z,85.8
2017-03-12T01:23:18.675Z,85.8
2017-03-12T01:24:21.401Z,85.7
2017-03-12T01:25:24.139Z,85.8
2017-03-12T01:26:26.855Z,85.8
2017-03-12T01:27:29.131Z,85.7
2017-03-12T01:28:32.242Z,85.7
2017-03-12T01:29:34.971Z,85.8
2017-03-12T01:30:36.854Z,85.8
2017-03-12T01:31:39.172Z,85.7
2017-03-12T01:32:41.897Z,85.9
2017-03-12T01:33:45.089Z,86
2017-03-12T01:34:48.217Z,86.1
2017-03-12T01:35:51.795Z,86.1
2017-03-12T01:36:53.676Z,86.2
2017-03-12T01:37:56.839Z,86.5
2017-03-12T01:38:59.553Z,86.5
2017-03-12T01:40:01.859Z,86.3
2017-03-12T01:41:04.167Z,86.3
2017-03-12T01:42:06.033Z,86.3
2017-03-12T01:43:08.355Z,86.5
2017-03-12T01:44:11.485Z,86.6
2017-03-12T01:45:13.791Z,86.6
2017-03-12T01:46:16.482Z,86.7
2017-03-12T01:47:18.344Z,86.8
2017-03-12T01:48:20.653Z,86.8
2017-03-12T01:49:22.513Z,86.8
2017-03-12T01:50:24.806Z,86.9
2017-03-12T01:51:27.085Z,87
2017-03-12T01:52:29.374Z,87
2017-03-12T01:53:32.531Z,87
2017-03-12T01:54:35.276Z,87.1
2017-03-12T01:55:38.428Z,87.2
2017-03-12T01:56:40.725Z,87.3
2017-03-12T01:57:43.019Z,87.3
2017-03-12T01:58:45.730Z,87.4
2017-03-12T01:59:48.018Z,87.4
2017-03-12T02:00:50.327Z,87.4
2017-03-12T02:01:52.605Z,87.5
2017-03-12T02:02:55.351Z,87.4
2017-03-12T02:03:57.637Z,87.5
2017-03-12T02:05:00.336Z,87.6
2017-03-12T02:06:02.701Z,87.6
2017-03-12T02:07:04.574Z,87.6
2017-03-12T02:08:06.892Z,87.6
2017-03-12T02:09:09.189Z,87.7
2017-03-12T02:10:11.903Z,87.8
2017-03-12T02:11:15.043Z,88
2017-03-12T02:12:17.767Z,87.8
2017-03-12T02:13:20.093Z,87.8
2017-03-12T02:14:23.128Z,87.8
2017-03-12T02:15:26.261Z,87.8
2017-03-12T02:16:29.435Z,87.6
2017-03-12T02:17:32.160Z,87.7
2017-03-12T02:18:34.501Z,87.7
2017-03-12T02:19:37.235Z,87.6
2017-03-12T02:20:39.136Z,87.7
2017-03-12T02:21:42.262Z,87.7
2017-03-12T02:22:45.388Z,87.6
2017-03-12T02:23:48.517Z,87.7
2017-03-12T02:24:51.222Z,87.8
2017-03-12T02:25:53.941Z,87.8
2017-03-12T02:26:57.080Z,87.7
2017-03-12T02:28:00.234Z,87.7
2017-03-12T02:29:02.537Z,87.6
2017-03-12T02:30:04.412Z,87.6
2017-03-12T02:31:06.297Z,87.7
2017-03-12T02:32:08.589Z,87.7
2017-03-12T02:33:10.442Z,87.7
2017-03-12T02:34:12.745Z,87.6
2017-03-12T02:35:15.096Z,87.6
2017-03-12T02:36:17.385Z,87.7
2017-03-12T02:37:19.697Z,87.8
2017-03-12T02:38:22.415Z,87.9
2017-03-12T02:39:24.704Z,87.9
2017-03-12T02:40:27.438Z,88
2017-03-12T02:41:30.160Z,88
2017-03-12T02:42:32.034Z,88
2017-03-12T02:43:35.181Z,88.1
2017-03-12T02:44:38.331Z,88.1
2017-03-12T02:45:41.051Z,88.1
2017-03-12T02:46:43.802Z,88.1
2017-03-12T02:47:46.508Z,88.1
2017-03-12T02:48:49.237Z,88.2
2017-03-12T02:49:52.389Z,88.4
2017-03-12T02:50:55.954Z,88.3
2017-03-12T02:51:58.252Z,88.2
2017-03-12T02:53:00.988Z,88.2
2017-03-12T02:54:03.321Z,88.3
2017-03-12T02:55:06.479Z,88.2
2017-03-12T02:56:08.761Z,88.3
2017-03-12T02:57:11.904Z,88.4
2017-03-12T02:58:14.699Z,88.4
2017-03-12T02:59:17.017Z,88.6
2017-03-12T03:00:20.144Z,88.7
2017-03-12T03:01:22.868Z,88.6
2017-03-12T03:02:25.596Z,88.5
2017-03-12T03:03:27.916Z,88.6
2017-03-12T03:04:29.766Z,88.6
2017-03-12T03:05:31.645Z,88.6
2017-03-12T03:06:33.508Z,88.7
2017-03-12T03:07:36.256Z,88.7
2017-03-12T03:08:38.584Z,88.7
2017-03-12T03:09:40.457Z,88.7
2017-03-12T03:10:42.328Z,88.7
2017-03-12T03:11:45.051Z,88.7
2017-03-12T03:12:47.772Z,88.7
2017-03-12T03:13:50.105Z,88.7
2017-03-12T03:14:52.394Z,88.4
2017-03-12T03:15:54.695Z,88.4
2017-03-12T03:16:57.438Z,88.4
2017-03-12T03:18:00.605Z,88.2
2017-03-12T03:19:02.920Z,88.2
2017-03-12T03:20:05.635Z,88.1
2017-03-12T03:21:07.552Z,88.2
2017-03-12T03:22:10.670Z,88.2
2017-03-12T03:23:12.970Z,88.1
2017-03-12T03:24:15.675Z,88
2017-03-12T03:25:18.403Z,88.1
2017-03-12T03:26:21.138Z,88.2
2017-03-12T03:27:23.437Z,88.2
2017-03-12T03:28:25.309Z,88.3
2017-03-12T03:29:27.599Z,88.4
2017-03-12T03:30:30.742Z,88.4
2017-03-12T03:31:33.018Z,88.4
2017-03-12T03:32:35.745Z,88.5
2017-03-12T03:33:38.061Z,88.5
2017-03-12T03:34:40.355Z,88.4
2017-03-12T03:35:42.638Z,88.4
2017-03-12T03:36:45.804Z,88.3
2017-03-12T03:37:48.668Z,88.4
2017-03-12T03:38:51.821Z,88.4
2017-03-12T03:39:54.145Z,88.4
2017-03-12T03:40:57.703Z,88.2
2017-03-12T03:42:00.415Z,88.3
2017-03-12T03:43:02.279Z,88.3
2017-03-12T03:44:04.610Z,88.2
2017-03-12T03:45:07.321Z,88.3
2017-03-12T03:46:09.630Z,88.4
2017-03-12T03:47:11.934Z,88.5
2017-03-12T03:48:14.705Z,88.5
2017-03-12T03:49:17.420Z,88.5
2017-03-12T03:50:20.559Z,88.4
2017-03-12T03:51:22.457Z,88.3
2017-03-12T03:52:24.735Z,88.4
2017-03-12T03:53:28.323Z,88.4
2017-03-12T03:54:30.183Z,88.3
2017-03-12T03:55:32.479Z,88.3
2017-03-12T03:56:34.337Z,88.3
2017-03-12T03:57:37.501Z,88.3
2017-03-12T03:58:40.653Z,88.3
2017-03-12T03:59:42.943Z,88.3
2017-03-12T04:00:46.086Z,88.4
2017-03-12T04:01:48.810Z,88.4
2017-03-12T04:02:51.149Z,88.4
2017-03-12T04:03:53.873Z,88.5
2017-03-12T04:04:56.180Z,88.7
2017-03-12T04:05:58.881Z,88.8
2017-03-12T04:07:01.179Z,88.9
2017-03-12T04:08:03.890Z,89
2017-03-12T04:09:05.764Z,89
2017-03-12T04:10:07.622Z,89
2017-03-12T04:11:09.929Z,89.2
2017-03-12T04:12:13.099Z,89.3
2017-03-12T04:13:15.844Z,89.4
2017-03-12T04:14:18.555Z,89.4
2017-03-12T04:15:20.417Z,89.4
2017-03-12T04:16:22.706Z,89.3
2017-03-12T04:17:25.854Z,89.4
2017-03-12T04:18:27.756Z,89.4
2017-03-12T04:19:30.884Z,89.4
2017-03-12T04:20:34.895Z,89.4
2017-03-12T04:21:38.068Z,89.5
2017-03-12T04:22:40.377Z,89.5
2017-03-12T04:23:43.061Z,89.5
2017-03-12T04:24:46.225Z,89.5
2017-03-12T04:25:48.928Z,89.6
2017-03-12T04:26:50.815Z,89.6
2017-03-12T04:27:52.672Z,89.7
2017-03-12T04:28:55.398Z,89.7
2017-03-12T04:29:57.738Z,89.9
2017-03-12T04:31:00.439Z,89.9
2017-03-12T04:32:03.578Z,90.1
2017-03-12T04:33:06.715Z,90.2
2017-03-12T04:34:08.983Z,90.1
2017-03-12T04:35:11.733Z,90.1
2017-03-12T04:36:13.625Z,90.1
2017-03-12T04:37:16.365Z,90.1
2017-03-12T04:38:19.071Z,90.1
2017-03-12T04:39:22.203Z,90.1
2017-03-12T04:40:24.508Z,90.1
2017-03-12T04:41:26.825Z,90.2
2017-03-12T04:42:28.698Z,90.2
2017-03-12T04:43:31.407Z,90.2
2017-03-12T04:44:33.280Z,90.1
2017-03-12T04:45:36.436Z,90.1
2017-03-12T04:46:38.711Z,90.2
2017-03-12T04:47:41.044Z,90.3
2017-03-12T04:48:43.361Z,90.4
2017-03-12T04:49:45.647Z,90.5
2017-03-12T04:50:48.792Z,90.4
2017-03-12T04:51:51.499Z,90.5
2017-03-12T04:52:55.456Z,90.5
2017-03-12T04:53:58.621Z,90.6
2017-03-12T04:55:01.737Z,90.7
2017-03-12T04:56:04.453Z,90.6
2017-03-12T04:57:06.318Z,90.7
2017-03-12T04:58:08.206Z,90.7
2017-03-12T04:59:10.061Z,90.7
2017-03-12T05:00:13.203Z,90.8
2017-03-12T05:01:15.917Z,90.9
2017-03-12T05:02:19.480Z,90.9
2017-03-12T05:03:21.376Z,90.9
2017-03-12T05:04:23.259Z,90.9
2017-03-12T05:05:25.968Z,91
2017-03-12T05:06:27.850Z,91
2017-03-12T05:07:30.552Z,91
2017-03-12T05:08:33.257Z,91
2017-03-12T05:09:35.533Z,91.1
2017-03-12T05:10:37.825Z,91.2
2017-03-12T05:11:40.961Z,91.2
2017-03-12T05:12:42.836Z,91.4
2017-03-12T05:13:45.124Z,91.5
2017-03-12T05:14:47.418Z,91.4
2017-03-12T05:15:50.145Z,91.5
2017-03-12T05:16:52.476Z,91.7
2017-03-12T05:17:54.758Z,91.8
2017-03-12T05:18:58.763Z,91.8
2017-03-12T05:20:00.631Z,91.9
2017-03-12T05:21:02.522Z,91.9
2017-03-12T05:22:04.804Z,91.9
2017-03-12T05:23:07.534Z,91.9
2017-03-12T05:24:10.247Z,91.9
2017-03-12T05:25:12.527Z,91.9
2017-03-12T05:26:14.391Z,91.9
2017-03-12T05:27:16.706Z,91.9
2017-03-12T05:28:18.990Z,92
2017-03-12T05:29:22.114Z,92.1
2017-03-12T05:30:23.981Z,92.1
2017-03-12T05:31:26.272Z,92
2017-03-12T05:32:28.152Z,91.9
2017-03-12T05:33:30.099Z,91.9
2017-03-12T05:34:32.829Z,92
2017-03-12T05:35:36.005Z,92
2017-03-12T05:36:38.310Z,92
2017-03-12T05:37:40.196Z,92.1
2017-03-12T05:38:42.463Z,92.2
2017-03-12T05:39:44.802Z,92.2
2017-03-12T05:40:47.502Z,92.3
2017-03-12T05:41:49.824Z,92.3
2017-03-12T05:42:52.552Z,92.2
2017-03-12T05:43:56.539Z,92.1
2017-03-12T05:44:58.402Z,92
2017-03-12T05:46:00.703Z,92
2017-03-12T05:47:02.988Z,92
2017-03-12T05:48:04.907Z,92.1
2017-03-12T05:49:06.779Z,92
2017-03-12T05:50:09.965Z,92
2017-03-12T05:51:11.873Z,92
2017-03-12T05:52:14.581Z,92.1
2017-03-12T05:53:17.346Z,92
2017-03-12T05:54:19.224Z,92
2017-03-12T05:55:21.966Z,92
2017-03-12T05:56:24.337Z,92
2017-03-12T05:57:27.046Z,91.9
2017-03-12T05:58:29.427Z,92
2017-03-12T05:59:31.742Z,92
2017-03-12T06:00:34.554Z,91.9
2017-03-12T06:01:37.271Z,91.9
2017-03-12T06:02:40.437Z,91.8
2017-03-12T06:03:42.339Z,91.8
2017-03-12T06:04:44.658Z,91.8
2017-03-12T06:05:47.007Z,91.8
2017-03-12T06:06:49.354Z,91.8
2017-03-12T06:07:51.683Z,91.8
2017-03-12T06:08:54.556Z,91.7
2017-03-12T06:09:57.298Z,91.7
2017-03-12T06:10:59.624Z,91.7
2017-03-12T06:12:01.942Z,91.7
2017-03-12T06:13:04.218Z,91.7
2017-03-12T06:14:06.981Z,91.7
2017-03-12T06:15:10.160Z,91.7
2017-03-12T06:16:12.908Z,91.6
2017-03-12T06:17:15.688Z,91.5
2017-03-12T06:18:17.980Z,91.7
2017-03-12T06:19:20.425Z,91.9
2017-03-12T06:20:22.873Z,92
2017-03-12T06:21:25.084Z,92.2
2017-03-12T06:22:27.440Z,91.5
2017-03-12T06:23:29.768Z,91
2017-03-12T06:24:58.927Z,91
2017-03-12T06:26:08.321Z,90.3
2017-03-12T06:27:10.277Z,90.1
2017-03-12T06:28:12.143Z,90.1
2017-03-12T06:29:14.475Z,89.9
2017-03-12T06:30:16.367Z,89.7
2017-03-12T06:31:19.531Z,89.6
2017-03-12T06:32:22.847Z,89.9
2017-03-12T06:33:25.587Z,89.6
2017-03-12T06:34:28.405Z,89.6
2017-03-12T06:35:30.741Z,89.6
2017-03-12T06:36:33.501Z,89.6
2017-03-12T06:37:35.447Z,89.6
2017-03-12T06:38:37.901Z,89.2
2017-03-12T06:39:40.229Z,89.3
2017-03-12T06:40:42.535Z,89.5
2017-03-12T06:41:44.420Z,88.9
2017-03-12T06:42:47.102Z,88.9
2017-03-12T06:43:50.662Z,88.6
2017-03-12T06:44:53.369Z,88.8
2017-03-12T06:45:56.964Z,88.8
2017-03-12T06:46:59.678Z,89
2017-03-12T06:48:02.697Z,89
2017-03-12T06:49:05.408Z,88.9
2017-03-12T06:50:08.170Z,88.5
2017-03-12T06:51:10.913Z,88.6
2017-03-12T06:52:13.637Z,88.6
2017-03-12T06:53:15.522Z,88.4
2017-03-12T06:54:17.874Z,88.7
2017-03-12T06:55:20.250Z,88.5
2017-03-12T06:56:22.126Z,88.7
2017-03-12T06:57:24.010Z,88.4
2017-03-12T06:58:26.708Z,88.6
2017-03-12T06:59:29.008Z,88.4
2017-03-12T07:00:30.910Z,88.4
2017-03-12T07:01:32.803Z,88.4
2017-03-12T07:02:35.184Z,88.4
2017-03-12T07:03:38.063Z,88.1
2017-03-12T07:04:40.799Z,88.1
2017-03-12T07:05:44.404Z,88.2
2017-03-12T07:06:46.731Z,88.1
2017-03-12T07:07:49.476Z,88
2017-03-12T07:08:51.779Z,87.6
2017-03-12T07:09:54.108Z,87.8
2017-03-12T07:10:56.411Z,87.7
2017-03-12T07:11:58.723Z,87.6
2017-03-12T07:13:01.052Z,87.4
2017-03-12T07:14:02.943Z,87.4
2017-03-12T07:15:05.716Z,87.6
2017-03-12T07:16:08.434Z,88.2
2017-03-12T07:17:11.374Z,88
2017-03-12T07:18:13.655Z,87.6
2017-03-12T07:19:16.851Z,87.5
2017-03-12T07:20:19.579Z,87.5
2017-03-12T07:21:23.559Z,87.5
2017-03-12T07:22:26.047Z,87.6
2017-03-12T07:23:28.332Z,87.2
2017-03-12T07:24:31.078Z,87.2
2017-03-12T07:25:33.780Z,87.4
2017-03-12T07:26:36.524Z,87.4
2017-03-12T07:27:39.730Z,87.2
2017-03-12T07:28:42.562Z,87.1
2017-03-12T07:29:44.877Z,87.2
2017-03-12T07:30:47.171Z,87.2
2017-03-12T07:31:49.933Z,87.1
2017-03-12T07:32:51.797Z,87.2
2017-03-12T07:33:54.507Z,87.2
2017-03-12T07:34:57.415Z,87.1
2017-03-12T07:36:00.131Z,87.1
2017-03-12T07:37:02.014Z,87
2017-03-12T07:38:05.176Z,87.1
2017-03-12T07:39:07.519Z,86.8
2017-03-12T07:40:10.234Z,86.8
2017-03-12T07:41:12.099Z,87
2017-03-12T07:42:14.633Z,86.9
2017-03-12T07:43:16.930Z,86.8
2017-03-12T07:44:19.214Z,86.6
2017-03-12T07:45:21.069Z,87
2017-03-12T07:46:23.363Z,87
2017-03-12T07:47:25.231Z,86.7
2017-03-12T07:48:27.545Z,86.3
2017-03-12T07:49:30.239Z,86.2
2017-03-12T07:50:32.712Z,86.1
2017-03-12T07:51:35.488Z,85.9
2017-03-12T07:52:37.781Z,85.6
2017-03-12T07:53:40.964Z,85.9
2017-03-12T07:54:43.259Z,86.1
2017-03-12T07:55:45.568Z,86.5
2017-03-12T07:56:47.891Z,86
2017-03-12T07:57:50.824Z,85.6
2017-03-12T07:58:53.572Z,85.7
2017-03-12T07:59:56.726Z,85
2017-03-12T08:00:58.643Z,84.6
2017-03-12T08:02:01.325Z,84.6
2017-03-12T08:03:03.667Z,84.2
2017-03-12T08:04:05.580Z,83.5
2017-03-12T08:05:07.683Z,83.3
2017-03-12T08:06:09.615Z,83
2017-03-12T08:07:11.488Z,82.8
2017-03-12T08:08:13.359Z,82.3
2017-03-12T08:09:15.380Z,83.1
2017-03-12T08:10:17.706Z,82.9
2017-03-12T08:11:20.851Z,82.7
2017-03-12T08:12:22.739Z,81.5
2017-03-12T08:13:25.691Z,81.5
2017-03-12T08:14:28.030Z,81.6
2017-03-12T08:15:30.350Z,81
2017-03-12T08:16:32.224Z,80.4
2017-03-12T08:17:34.098Z,80.1
2017-03-12T08:18:36.000Z,80.8
2017-03-12T08:19:38.325Z,81.5
2017-03-12T08:20:40.236Z,81.3
2017-03-12T08:21:42.124Z,81.4
2017-03-12T08:22:44.597Z,80.2
2017-03-12T08:23:47.315Z,79.7
2017-03-12T08:24:49.170Z,79.8
2017-03-12T08:25:51.923Z,79.2
2017-03-12T08:26:54.635Z,79.4
2017-03-12T08:27:56.533Z,79.4
2017-03-12T08:28:58.852Z,78.8
2017-03-12T08:30:01.775Z,78.6
2017-03-12T08:31:03.654Z,78.5
2017-03-12T08:32:05.969Z,78.3
2017-03-12T08:33:07.854Z,78.3
2017-03-12T08:34:09.767Z,78.5
2017-03-12T08:35:11.633Z,79.7
2017-03-12T08:36:13.517Z,79.2
2017-03-12T08:37:15.832Z,79.2
2017-03-12T08:38:17.781Z,78.7
2017-03-12T08:39:19.818Z,78.4
2017-03-12T08:40:22.225Z,79
2017-03-12T08:41:24.333Z,78.9
2017-03-12T08:42:26.631Z,78.3
2017-03-12T08:43:28.940Z,78.5
2017-03-12T08:44:30.813Z,78
2017-03-12T08:45:32.673Z,78.4
2017-03-12T08:46:34.537Z,78.2
2017-03-12T08:47:36.857Z,77.3
2017-03-12T08:48:39.571Z,78
2017-03-12T08:49:41.733Z,78.3
2017-03-12T08:50:43.590Z,78.2
2017-03-12T08:51:46.360Z,79.4
2017-03-12T08:52:48.259Z,79.1
2017-03-12T08:53:50.570Z,79.7
2017-03-12T08:54:53.287Z,79.7
2017-03-12T08:55:55.191Z,79.1
2017-03-12T08:56:57.668Z,78.8
2017-03-12T08:57:59.545Z,78.7
2017-03-12T08:59:01.411Z,78.9
2017-03-12T09:00:03.285Z,79
2017-03-12T09:01:05.191Z,78.4
2017-03-12T09:02:07.066Z,78.7
2017-03-12T09:03:08.970Z,79.2
2017-03-12T09:04:10.857Z,79.5
2017-03-12T09:05:13.208Z,79.1
2017-03-12T09:06:15.528Z,79.2
2017-03-12T09:07:17.665Z,79.4
2017-03-12T09:08:19.584Z,79.8
2017-03-12T09:09:21.466Z,79.6
2017-03-12T09:10:24.216Z,79.4
2017-03-12T09:11:26.094Z,79.1
2017-03-12T09:12:28.812Z,79.5
2017-03-12T09:13:31.549Z,79.5
2017-03-12T09:14:33.829Z,79.4
2017-03-12T09:15:36.311Z,79.5
2017-03-12T09:16:39.478Z,78.6
2017-03-12T09:17:41.801Z,79.1
2017-03-12T09:18:44.529Z,79.5
2017-03-12T09:19:46.418Z,79.2
2017-03-12T09:20:48.285Z,79.4
2017-03-12T09:21:50.152Z,79.9
2017-03-12T09:22:52.031Z,80.5
2017-03-12T09:23:54.477Z,78.9
2017-03-12T09:24:56.351Z,79.3
2017-03-12T09:25:58.254Z,79.3
2017-03-12T09:27:00.152Z,79.2
2017-03-12T09:28:02.471Z,79.5
2017-03-12T09:29:04.352Z,79.5
2017-03-12T09:30:06.237Z,79.7
2017-03-12T09:31:08.103Z,79.8
2017-03-12T09:32:10.414Z,79
2017-03-12T09:33:12.310Z,79.3
2017-03-12T09:34:14.450Z,79
2017-03-12T09:35:16.739Z,79.4
2017-03-12T09:36:18.629Z,79.5
2017-03-12T09:37:20.928Z,79.2
2017-03-12T09:38:23.228Z,79.1
2017-03-12T09:39:25.081Z,79.1
2017-03-12T09:40:26.978Z,79.4
2017-03-12T09:41:28.846Z,79.6
2017-03-12T09:42:31.133Z,79.4
2017-03-12T09:43:33.158Z,79.3
2017-03-12T09:44:35.145Z,79.9
2017-03-12T09:45:37.009Z,79.8
2017-03-12T09:46:38.870Z,79.8
2017-03-12T09:47:41.186Z,79.1
2017-03-12T09:48:43.895Z,79.2
2017-03-12T09:49:46.207Z,78.7
2017-03-12T09:50:48.057Z,78.6
2017-03-12T09:51:50.389Z,78.7
2017-03-12T09:52:52.689Z,78.5
2017-03-12T09:53:55.007Z,78.6
2017-03-12T09:54:57.736Z,78.7
2017-03-12T09:55:59.625Z,78.7
2017-03-12T09:57:02.034Z,78.6
2017-03-12T09:58:04.769Z,78.5
2017-03-12T09:59:06.661Z,78.3
2017-03-12T10:00:08.951Z,78.5
2017-03-12T10:01:10.818Z,78.4
2017-03-12T10:02:13.141Z,78.4
2017-03-12T10:03:15.440Z,78.1
2017-03-12T10:04:17.769Z,78.2
2017-03-12T10:05:19.680Z,77.9
2017-03-12T10:06:22.206Z,77.9
2017-03-12T10:07:24.505Z,78
2017-03-12T10:08:26.765Z,78.2
2017-03-12T10:09:29.052Z,78.7
2017-03-12T10:10:30.982Z,78.2
2017-03-12T10:11:33.288Z,78.3
2017-03-12T10:12:35.153Z,78.2
2017-03-12T10:13:37.092Z,78.2
2017-03-12T10:14:39.097Z,78.4
2017-03-12T10:15:41.382Z,77.8
2017-03-12T10:16:43.676Z,77.1
2017-03-12T10:17:45.550Z,76.8
2017-03-12T10:18:47.837Z,77.2
2017-03-12T10:19:50.136Z,77
2017-03-12T10:20:51.994Z,76.7
2017-03-12T10:21:53.905Z,75.8
2017-03-12T10:22:55.857Z,75.6
2017-03-12T10:23:57.892Z,75.8
2017-03-12T10:25:00.196Z,75.8
2017-03-12T10:26:02.085Z,76.2
2017-03-12T10:27:05.246Z,75.8
2017-03-12T10:28:07.123Z,75.1
2017-03-12T10:29:10.295Z,74.8
2017-03-12T10:30:12.165Z,74.5
2017-03-12T10:31:14.591Z,74.4
2017-03-12T10:32:16.891Z,74.5
2017-03-12T10:33:19.188Z,74.3
2017-03-12T10:34:21.473Z,74.5
2017-03-12T10:35:23.756Z,74.5
2017-03-12T10:36:26.055Z,74.4
2017-03-12T10:37:28.377Z,74.4
2017-03-12T10:38:31.261Z,74
2017-03-12T10:39:34.831Z,73.9
2017-03-12T10:40:36.712Z,73.4
2017-03-12T10:41:38.566Z,73.2
2017-03-12T10:42:40.506Z,73.3
2017-03-12T10:43:42.376Z,73.7
2017-03-12T10:44:44.259Z,73.4
2017-03-12T10:45:46.147Z,73.6
2017-03-12T10:46:48.457Z,73.2
2017-03-12T10:47:50.377Z,73.2
2017-03-12T10:48:53.297Z,73.3
2017-03-12T10:49:56.012Z,73.1
2017-03-12T10:50:57.907Z,73.4
2017-03-12T10:52:01.065Z,73.3
2017-03-12T10:53:03.354Z,73.4
2017-03-12T10:54:05.240Z,73.4
2017-03-12T10:55:07.516Z,72.8
2017-03-12T10:56:09.422Z,72.9
2017-03-12T10:57:11.450Z,72.8
2017-03-12T10:58:13.743Z,72.7
2017-03-12T10:59:16.036Z,72.3
2017-03-12T11:00:18.341Z,72.5
2017-03-12T11:01:20.626Z,72.3
2017-03-12T11:02:22.525Z,71.5
2017-03-12T11:03:24.794Z,71.7
2017-03-12T11:04:27.635Z,72
2017-03-12T11:05:29.586Z,72.2
2017-03-12T11:06:31.489Z,72.1
2017-03-12T11:07:33.765Z,71.3
2017-03-12T11:08:35.671Z,71.7
2017-03-12T11:09:38.005Z,71.2
2017-03-12T11:10:40.430Z,70.9
2017-03-12T11:11:42.316Z,70.3
2017-03-12T11:12:44.712Z,70.9
2017-03-12T11:13:46.818Z,71.5
2017-03-12T11:14:49.664Z,72
2017-03-12T11:15:52.077Z,72.2
2017-03-12T11:16:54.398Z,71.7
2017-03-12T11:17:56.881Z,71.3
2017-03-12T11:18:58.783Z,70.9
2017-03-12T11:20:02.000Z,70.4
2017-03-12T11:21:04.485Z,70
2017-03-12T11:22:06.687Z,69.9
2017-03-12T11:23:09.413Z,69.7
2017-03-12T11:24:11.754Z,69.5
2017-03-12T11:25:14.927Z,69.5
2017-03-12T11:26:17.258Z,69.5
2017-03-12T11:27:19.913Z,68.9
2017-03-12T11:28:22.708Z,67.6
2017-03-12T11:29:24.593Z,66.3
2017-03-12T11:30:26.477Z,65.8
2017-03-12T11:31:29.608Z,65.6
2017-03-12T11:32:31.537Z,65.9
2017-03-12T11:33:33.427Z,64.5
2017-03-12T11:34:36.046Z,63.8
2017-03-12T11:35:38.466Z,64.2
2017-03-12T11:36:40.380Z,64
2017-03-12T11:37:42.256Z,63.2
2017-03-12T11:38:44.670Z,62.9
2017-03-12T11:39:46.985Z,63.2
2017-03-12T11:40:48.864Z,63.4
2017-03-12T11:41:52.550Z,62.3
2017-03-12T11:42:56.518Z,62.9
2017-03-12T11:44:00.383Z,62.5
2017-03-12T11:45:03.786Z,61.9
2017-03-12T11:46:07.523Z,62.2
2017-03-12T11:47:11.791Z,62.6
2017-03-12T11:48:17.851Z,62.8
2017-03-12T11:49:21.398Z,62.9
2017-03-12T11:50:24.369Z,62.9
2017-03-12T11:51:28.661Z,63.5
2017-03-12T11:52:32.584Z,63.2
2017-03-12T11:53:35.634Z,63.6
2017-03-12T11:54:38.930Z,63.8
2017-03-12T11:55:41.229Z,64
2017-03-12T11:56:43.574Z,61.9
2017-03-12T11:57:46.315Z,61.5
2017-03-12T11:58:49.464Z,61.9
2017-03-12T11:59:51.331Z,61.8
2017-03-12T12:00:53.605Z,63
2017-03-12T12:01:55.942Z,62.5
2017-03-12T12:02:57.821Z,62.7
2017-03-12T12:03:59.709Z,62.4
2017-03-12T12:05:02.424Z,61.8
2017-03-12T12:06:04.330Z,61.2
2017-03-12T12:07:06.213Z,61.8
2017-03-12T12:08:08.107Z,62.8
2017-03-12T12:09:10.011Z,63.6
2017-03-12T12:10:13.144Z,62.8
2017-03-12T12:11:15.486Z,61.4
2017-03-12T12:12:18.230Z,60.7
2017-03-12T12:13:20.127Z,61.3
2017-03-12T12:14:22.426Z,61.7
2017-03-12T12:15:24.353Z,61.5
2017-03-12T12:16:26.681Z,62.7
2017-03-12T12:17:28.629Z,62.5
2017-03-12T12:18:30.533Z,61.6
2017-03-12T12:19:32.862Z,62.1
2017-03-12T12:20:34.768Z,62
2017-03-12T12:21:36.665Z,62.4
2017-03-12T12:22:39.642Z,63.8
2017-03-12T12:23:42.744Z,62.4
2017-03-12T12:24:45.468Z,63
2017-03-12T12:25:48.615Z,63.4
2017-03-12T12:26:51.397Z,63.1
2017-03-12T12:27:53.274Z,64.1
2017-03-12T12:28:55.992Z,63.2
2017-03-12T12:29:58.760Z,62.7
2017-03-12T12:31:01.080Z,62
2017-03-12T12:32:03.806Z,63
2017-03-12T12:33:06.129Z,62.3
2017-03-12T12:34:08.775Z,61.8
2017-03-12T12:35:11.146Z,62.1
2017-03-12T12:36:13.026Z,62.5
2017-03-12T12:37:16.063Z,61.4
2017-03-12T12:38:18.918Z,62
2017-03-12T12:39:21.075Z,61.7
2017-03-12T12:40:23.381Z,60.9
2017-03-12T12:41:25.701Z,60.3
2017-03-12T12:42:28.888Z,60.2
2017-03-12T12:43:31.202Z,59.6
2017-03-12T12:44:33.933Z,59.9
2017-03-12T12:45:35.817Z,60.5
2017-03-12T12:46:38.529Z,60.1
2017-03-12T12:47:41.251Z,59.6
2017-03-12T12:48:43.996Z,59.8
2017-03-12T12:49:47.144Z,60.1
2017-03-12T12:50:50.327Z,60.5
2017-03-12T12:51:52.621Z,59.9
2017-03-12T12:52:54.950Z,60.4
2017-03-12T12:53:57.248Z,60.6
2017-03-12T12:54:59.573Z,59.9
2017-03-12T12:56:01.878Z,60.5
2017-03-12T12:57:04.218Z,59.6
2017-03-12T12:58:06.097Z,59.2
2017-03-12T12:59:09.245Z,59.9
2017-03-12T13:00:11.564Z,59.6
2017-03-12T13:01:13.876Z,59.1
2017-03-12T13:02:17.049Z,59.7
2017-03-12T13:03:20.629Z,59.7
2017-03-12T13:04:23.354Z,59.3
2017-03-12T13:05:26.516Z,58.8
2017-03-12T13:06:28.407Z,59
2017-03-12T13:07:30.270Z,59.8
2017-03-12T13:08:32.616Z,60
2017-03-12T13:09:34.960Z,60.4
2017-03-12T13:10:37.275Z,59.4
2017-03-12T13:11:39.586Z,59.5
2017-03-12T13:12:42.340Z,59.1
2017-03-12T13:13:45.064Z,59
2017-03-12T13:14:46.949Z,57.9
2017-03-12T13:15:48.830Z,58
2017-03-12T13:16:51.181Z,58.1
2017-03-12T13:17:53.914Z,57.6
2017-03-12T13:18:56.212Z,57.1
2017-03-12T13:19:58.510Z,56.6
2017-03-12T13:21:00.841Z,57.8
2017-03-12T13:22:03.167Z,58.5
2017-03-12T13:23:05.889Z,59.2
2017-03-12T13:24:07.761Z,59.4
2017-03-12T13:25:10.071Z,59.3
2017-03-12T13:26:11.971Z,59.7
2017-03-12T13:30:08.434Z,59.5
2017-03-12T13:31:10.283Z,59
2017-03-12T13:32:12.533Z,59.3
2017-03-12T13:33:14.783Z,59.1
2017-03-12T13:34:17.038Z,59.4
2017-03-12T13:35:19.322Z,59.4
2017-03-12T13:36:21.588Z,59.2
2017-03-12T13:37:23.825Z,59.1
2017-03-12T13:38:26.504Z,58.5
2017-03-12T13:39:29.205Z,57.8
2017-03-12T13:40:32.606Z,59.4
2017-03-12T13:41:34.448Z,57.8
2017-03-12T13:42:37.241Z,56.3
2017-03-12T13:43:39.581Z,56.1
2017-03-12T13:44:41.418Z,57.4
2017-03-12T13:45:43.339Z,57.5
2017-03-12T13:46:45.165Z,58.2
2017-03-12T13:47:47.438Z,58.7
2017-03-12T13:48:49.740Z,59.5
2017-03-12T13:49:52.182Z,58.3
2017-03-12T13:50:54.162Z,59.1
2017-03-12T13:51:56.890Z,59.3
2017-03-12T13:52:59.235Z,58.5
2017-03-12T13:54:01.474Z,58.9
2017-03-12T13:55:03.309Z,59.5
2017-03-12T13:56:06.013Z,59.5
2017-03-12T13:57:08.295Z,60.2
2017-03-12T13:58:10.557Z,60.1
2017-03-12T13:59:12.889Z,60.9
2017-03-12T14:00:14.754Z,61.1